Terminal Aerodrome Forecast
Issued by NWS Wakefield, VA

Home | Current Version | Previous Version | Text Only | Print | Product List | Glossary On
Versions: 1 2 3 4 5 6 7 8 9 10 11 12 13 14 15 16 17 18 19
000
FTUS41 KAKQ 211509 AAA
TAFORF
TAF AMD
KORF 211509Z 2115/2212 19004KT 2SM BR OVC002
     FM211700 15005KT P6SM OVC004
     FM220000 13004KT 4SM -SHRA OVC006
     FM220400 10006KT 2SM -RA BR OVC004
     FM220800 07005KT 1SM -DZ BR OVC003 WS020/21025KT=

USA.gov is the U.S. government's official web portal to all federal, state and local government web resources and services.